Terminal Aerodrome Forecast
Issued by NWS

Home | Current Version | Previous Version | Text Only | Print | Product List | Glossary On
Versions: 1 2 3 4 5 6 7 8 9 10 11 12 13
834
FTUS45 KRIW 191120
TAFRKS
TAF
KRKS 191120Z 1912/2012 VRB05KT P6SM FEW090
     FM191800 19007KT P6SM BKN080
     FM192200 19007KT P6SM VCSH BKN050
     FM200200 20010KT 5SM -SN BKN030
     FM201000 26007KT P6SM VCSH SCT030 BKN050=

USA.gov is the U.S. government's official web portal to all federal, state and local government web resources and services.